sensor_id;sensor_type;location;lat;lon;timestamp;pressure;altitude;pressure_sealevel;temperature;humidity
83635;BME280;73596;49.482;11.238;2024-03-29T00:01:55;96595.75;;;3.64;85.78
83635;BME280;73596;49.482;11.238;2024-03-29T00:04:20;96593.09;;;3.65;85.65
83635;BME280;73596;49.482;11.238;2024-03-29T00:06:45;96587.97;;;3.65;85.54
83635;BME280;73596;49.482;11.238;2024-03-29T00:09:11;96590.41;;;3.67;85.53
83635;BME280;73596;49.482;11.238;2024-03-29T00:11:36;96583.56;;;3.67;85.96
83635;BME280;73596;49.482;11.238;2024-03-29T00:14:01;96578.97;;;3.72;85.48
83635;BME280;73596;49.482;11.238;2024-03-29T00:16:27;96585.03;;;3.71;85.52
83635;BME280;73596;49.482;11.238;2024-03-29T00:18:52;96573.06;;;3.72;85.25
83635;BME280;73596;49.482;11.238;2024-03-29T00:21:18;96573.28;;;3.69;85.37
83635;BME280;73596;49.482;11.238;2024-03-29T00:23:43;96577.44;;;3.70;85.79
83635;BME280;73596;49.482;11.238;2024-03-29T00:26:10;96572.47;;;3.68;85.86
83635;BME280;73596;49.482;11.238;2024-03-29T00:28:35;96564.88;;;3.67;85.41
83635;BME280;73596;49.482;11.238;2024-03-29T00:31:00;96567.34;;;3.68;85.50
83635;BME280;73596;49.482;11.238;2024-03-29T00:33:26;96561.53;;;3.66;84.98
83635;BME280;73596;49.482;11.238;2024-03-29T00:35:51;96557.84;;;3.70;85.37
83635;BME280;73596;49.482;11.238;2024-03-29T00:38:16;96564.47;;;3.73;85.10
83635;BME280;73596;49.482;11.238;2024-03-29T00:40:41;96570.22;;;3.76;84.94
83635;BME280;73596;49.482;11.238;2024-03-29T00:43:07;96575.41;;;3.75;84.64
83635;BME280;73596;49.482;11.238;2024-03-29T00:45:32;96570.63;;;3.70;84.98
83635;BME280;73596;49.482;11.238;2024-03-29T00:47:57;96570.50;;;3.72;85.13
83635;BME280;73596;49.482;11.238;2024-03-29T00:50:23;96567.16;;;3.71;85.15
83635;BME280;73596;49.482;11.238;2024-03-29T00:52:48;96556.94;;;3.71;84.60
83635;BME280;73596;49.482;11.238;2024-03-29T00:55:14;96542.41;;;3.72;84.67
83635;BME280;73596;49.482;11.238;2024-03-29T00:57:39;96543.94;;;3.74;84.42
83635;BME280;73596;49.482;11.238;2024-03-29T01:00:05;96545.25;;;3.80;84.22
83635;BME280;73596;49.482;11.238;2024-03-29T01:02:31;96535.47;;;3.87;84.40
83635;BME280;73596;49.482;11.238;2024-03-29T01:04:56;96523.41;;;3.89;83.84
83635;BME280;73596;49.482;11.238;2024-03-29T01:07:21;96511.13;;;3.94;83.57
83635;BME280;73596;49.482;11.238;2024-03-29T01:09:47;96506.63;;;3.97;83.73
83635;BME280;73596;49.482;11.238;2024-03-29T01:12:12;96493.75;;;3.99;83.58
83635;BME280;73596;49.482;11.238;2024-03-29T01:14:37;96491.88;;;4.01;83.01
83635;BME280;73596;49.482;11.238;2024-03-29T01:17:03;96489.44;;;3.99;83.12
83635;BME280;73596;49.482;11.238;2024-03-29T01:19:28;96492.81;;;4.00;83.59
83635;BME280;73596;49.482;11.238;2024-03-29T01:21:54;96492.91;;;3.98;83.46
83635;BME280;73596;49.482;11.238;2024-03-29T01:24:19;96477.59;;;3.98;83.33
83635;BME280;73596;49.482;11.238;2024-03-29T01:26:44;96485.25;;;3.98;83.42
83635;BME280;73596;49.482;11.238;2024-03-29T01:29:09;96492.72;;;4.01;83.43
83635;BME280;73596;49.482;11.238;2024-03-29T01:31:36;96500.25;;;4.03;83.72
83635;BME280;73596;49.482;11.238;2024-03-29T01:34:01;96500.97;;;4.05;83.20
83635;BME280;73596;49.482;11.238;2024-03-29T01:36:28;96494.09;;;4.05;83.20
83635;BME280;73596;49.482;11.238;2024-03-29T01:38:53;96484.16;;;4.13;82.94
83635;BME280;73596;49.482;11.238;2024-03-29T01:41:22;96476.91;;;4.20;82.39
83635;BME280;73596;49.482;11.238;2024-03-29T01:43:48;96468.91;;;4.24;82.22
83635;BME280;73596;49.482;11.238;2024-03-29T01:46:13;96468.91;;;4.24;82.36
83635;BME280;73596;49.482;11.238;2024-03-29T01:48:39;96472.78;;;4.30;82.24
83635;BME280;73596;49.482;11.238;2024-03-29T01:51:04;96472.53;;;4.33;82.05
83635;BME280;73596;49.482;11.238;2024-03-29T01:53:30;96474.16;;;4.34;81.43
83635;BME280;73596;49.482;11.238;2024-03-29T01:55:57;96475.56;;;4.38;81.50
83635;BME280;73596;49.482;11.238;2024-03-29T01:58:24;96476.03;;;4.43;81.62
83635;BME280;73596;49.482;11.238;2024-03-29T02:00:54;96477.56;;;4.45;81.42
83635;BME280;73596;49.482;11.238;2024-03-29T02:03:20;96483.63;;;4.44;81.41
83635;BME280;73596;49.482;11.238;2024-03-29T02:05:47;96474.22;;;4.45;81.37
83635;BME280;73596;49.482;11.238;2024-03-29T02:08:13;96470.03;;;4.44;80.78
83635;BME280;73596;49.482;11.238;2024-03-29T02:10:38;96471.66;;;4.45;81.09
83635;BME280;73596;49.482;11.238;2024-03-29T02:13:04;96468.16;;;4.46;81.17
83635;BME280;73596;49.482;11.238;2024-03-29T02:15:32;96462.72;;;4.50;80.59
83635;BME280;73596;49.482;11.238;2024-03-29T02:17:58;96461.78;;;4.52;80.83
83635;BME280;73596;49.482;11.238;2024-03-29T02:20:24;96465.25;;;4.50;80.64
83635;BME280;73596;49.482;11.238;2024-03-29T02:22:53;96459.94;;;4.54;80.32
83635;BME280;73596;49.482;11.238;2024-03-29T02:25:19;96458.19;;;4.54;80.54
83635;BME280;73596;49.482;11.238;2024-03-29T02:27:45;96462.50;;;4.54;80.36
83635;BME280;73596;49.482;11.238;2024-03-29T02:30:16;96465.06;;;4.54;80.54
83635;BME280;73596;49.482;11.238;2024-03-29T02:32:42;96461.66;;;4.53;80.86
83635;BME280;73596;49.482;11.238;2024-03-29T02:35:08;96475.19;;;4.55;80.02
83635;BME280;73596;49.482;11.238;2024-03-29T02:37:35;96478.53;;;4.56;80.11
83635;BME280;73596;49.482;11.238;2024-03-29T02:40:01;96475.88;;;4.57;80.23
83635;BME280;73596;49.482;11.238;2024-03-29T02:42:26;96465.44;;;4.60;80.28
83635;BME280;73596;49.482;11.238;2024-03-29T02:44:51;96461.94;;;4.61;80.05
83635;BME280;73596;49.482;11.238;2024-03-29T02:47:17;96454.16;;;4.63;80.01
83635;BME280;73596;49.482;11.238;2024-03-29T02:49:42;96455.44;;;4.68;78.81
83635;BME280;73596;49.482;11.238;2024-03-29T02:52:08;96452.66;;;4.71;78.84
83635;BME280;73596;49.482;11.238;2024-03-29T02:54:33;96443.72;;;4.77;78.61
83635;BME280;73596;49.482;11.238;2024-03-29T02:56:58;96446.16;;;4.78;78.33
83635;BME280;73596;49.482;11.238;2024-03-29T02:59:24;96430.72;;;4.80;78.00
83635;BME280;73596;49.482;11.238;2024-03-29T03:01:49;96433.16;;;4.81;78.13
83635;BME280;73596;49.482;11.238;2024-03-29T03:04:14;96435.50;;;4.84;77.78
83635;BME280;73596;49.482;11.238;2024-03-29T03:06:39;96432.22;;;4.93;77.19
83635;BME280;73596;49.482;11.238;2024-03-29T03:09:04;96425.16;;;4.97;77.27
83635;BME280;73596;49.482;11.238;2024-03-29T03:11:48;96430.13;;;4.98;77.49
83635;BME280;73596;49.482;11.238;2024-03-29T03:14:13;96428.19;;;5.02;76.92
83635;BME280;73596;49.482;11.238;2024-03-29T03:16:38;96422.38;;;5.00;77.41
83635;BME280;73596;49.482;11.238;2024-03-29T03:19:04;96423.41;;;4.97;76.96
83635;BME280;73596;49.482;11.238;2024-03-29T03:21:29;96420.63;;;5.00;77.22
83635;BME280;73596;49.482;11.238;2024-03-29T03:23:54;96417.13;;;5.01;76.53
83635;BME280;73596;49.482;11.238;2024-03-29T03:26:19;96416.44;;;4.99;76.91
83635;BME280;73596;49.482;11.238;2024-03-29T03:28:45;96404.09;;;5.04;76.53
83635;BME280;73596;49.482;11.238;2024-03-29T03:31:10;96413.16;;;5.08;75.79
83635;BME280;73596;49.482;11.238;2024-03-29T03:33:35;96408.06;;;5.08;76.54
83635;BME280;73596;49.482;11.238;2024-03-29T03:36:01;96415.41;;;5.13;76.19
83635;BME280;73596;49.482;11.238;2024-03-29T03:38:26;96419.78;;;5.11;76.50
83635;BME280;73596;49.482;11.238;2024-03-29T03:40:51;96433.63;;;5.08;76.04
83635;BME280;73596;49.482;11.238;2024-03-29T03:43:16;96445.50;;;5.09;75.49
83635;BME280;73596;49.482;11.238;2024-03-29T03:45:42;96435.88;;;5.13;75.33
83635;BME280;73596;49.482;11.238;2024-03-29T03:48:09;96440.16;;;5.12;75.20
83635;BME280;73596;49.482;11.238;2024-03-29T03:50:35;96440.16;;;5.12;75.98
83635;BME280;73596;49.482;11.238;2024-03-29T03:53:01;96453.78;;;5.13;75.56
83635;BME280;73596;49.482;11.238;2024-03-29T03:55:27;96442.50;;;5.16;75.54
83635;BME280;73596;49.482;11.238;2024-03-29T03:57:53;96442.16;;;5.20;75.28
83635;BME280;73596;49.482;11.238;2024-03-29T04:00:19;96427.25;;;5.25;75.27
83635;BME280;73596;49.482;11.238;2024-03-29T04:02:51;96428.31;;;5.23;74.74
83635;BME280;73596;49.482;11.238;2024-03-29T04:05:17;96423.31;;;5.21;75.10
83635;BME280;73596;49.482;11.238;2024-03-29T04:07:43;96421.31;;;5.25;74.65
83635;BME280;73596;49.482;11.238;2024-03-29T04:10:08;96429.13;;;5.23;75.42
83635;BME280;73596;49.482;11.238;2024-03-29T04:12:34;96437.03;;;5.20;75.25
83635;BME280;73596;49.482;11.238;2024-03-29T04:14:59;96430.75;;;5.24;75.21
83635;BME280;73596;49.482;11.238;2024-03-29T04:17:24;96418.66;;;5.26;75.28
83635;BME280;73596;49.482;11.238;2024-03-29T04:19:49;96420.19;;;5.29;73.36
83635;BME280;73596;49.482;11.238;2024-03-29T04:22:15;96421.78;;;5.30;74.43
83635;BME280;73596;49.482;11.238;2024-03-29T04:24:40;96424.34;;;5.30;74.59
83635;BME280;73596;49.482;11.238;2024-03-29T04:27:05;96419.22;;;5.30;74.15
83635;BME280;73596;49.482;11.238;2024-03-29T04:29:31;96438.19;;;5.27;74.09
83635;BME280;73596;49.482;11.238;2024-03-29T04:31:56;96418.91;;;5.23;73.26
83635;BME280;73596;49.482;11.238;2024-03-29T04:34:21;96441.44;;;5.29;73.60
83635;BME280;73596;49.482;11.238;2024-03-29T04:36:46;96429.59;;;5.28;73.40
83635;BME280;73596;49.482;11.238;2024-03-29T04:39:12;96431.81;;;5.33;74.25
83635;BME280;73596;49.482;11.238;2024-03-29T04:41:37;96441.91;;;5.34;72.64
83635;BME280;73596;49.482;11.238;2024-03-29T04:44:03;96446.94;;;5.36;72.35
83635;BME280;73596;49.482;11.238;2024-03-29T04:46:30;96460.56;;;5.36;73.43
83635;BME280;73596;49.482;11.238;2024-03-29T04:48:57;96458.56;;;5.40;72.78
83635;BME280;73596;49.482;11.238;2024-03-29T04:51:22;96456.00;;;5.40;73.36
83635;BME280;73596;49.482;11.238;2024-03-29T04:53:48;96467.97;;;5.39;72.51
83635;BME280;73596;49.482;11.238;2024-03-29T04:56:13;96467.97;;;5.39;73.00
83635;BME280;73596;49.482;11.238;2024-03-29T04:58:38;96445.75;;;5.40;73.51
83635;BME280;73596;49.482;11.238;2024-03-29T05:01:04;96480.78;;;5.39;72.87
83635;BME280;73596;49.482;11.238;2024-03-29T05:03:29;96463.31;;;5.44;72.64
83635;BME280;73596;49.482;11.238;2024-03-29T05:05:56;96474.59;;;5.42;72.64
83635;BME280;73596;49.482;11.238;2024-03-29T05:08:21;96478.22;;;5.39;73.06
83635;BME280;73596;49.482;11.238;2024-03-29T05:10:48;96467.06;;;5.40;72.91
83635;BME280;73596;49.482;11.238;2024-03-29T05:13:15;96474.03;;;5.38;74.04
83635;BME280;73596;49.482;11.238;2024-03-29T05:15:40;96471.56;;;5.37;72.97
83635;BME280;73596;49.482;11.238;2024-03-29T05:18:05;96495.22;;;5.40;73.79
83635;BME280;73596;49.482;11.238;2024-03-29T05:20:31;96521.88;;;5.49;71.97
83635;BME280;73596;49.482;11.238;2024-03-29T05:22:58;96522.66;;;5.49;72.28
83635;BME280;73596;49.482;11.238;2024-03-29T05:25:23;96525.13;;;5.51;73.20
83635;BME280;73596;49.482;11.238;2024-03-29T05:27:49;96532.00;;;5.50;72.30
83635;BME280;73596;49.482;11.238;2024-03-29T05:30:14;96528.75;;;5.48;72.66
83635;BME280;73596;49.482;11.238;2024-03-29T05:32:40;96543.63;;;5.54;72.43
83635;BME280;73596;49.482;11.238;2024-03-29T05:35:05;96535.94;;;5.54;72.82
83635;BME280;73596;49.482;11.238;2024-03-29T05:37:30;96526.66;;;5.53;73.03
83635;BME280;73596;49.482;11.238;2024-03-29T05:39:56;96525.97;;;5.51;73.50
83635;BME280;73596;49.482;11.238;2024-03-29T05:42:28;96547.50;;;5.49;74.50
83635;BME280;73596;49.482;11.238;2024-03-29T05:44:54;96558.53;;;5.49;73.78
83635;BME280;73596;49.482;11.238;2024-03-29T05:47:19;96509.19;;;5.47;74.77
83635;BME280;73596;49.482;11.238;2024-03-29T05:49:45;96498.94;;;5.47;73.97
83635;BME280;73596;49.482;11.238;2024-03-29T05:52:10;96504.88;;;5.48;74.19
83635;BME280;73596;49.482;11.238;2024-03-29T05:54:39;96492.91;;;5.48;73.88
83635;BME280;73596;49.482;11.238;2024-03-29T05:57:04;96486.13;;;5.47;74.52
83635;BME280;73596;49.482;11.238;2024-03-29T05:59:31;96483.56;;;5.47;73.48
83635;BME280;73596;49.482;11.238;2024-03-29T06:01:56;96496.03;;;5.52;72.69
83635;BME280;73596;49.482;11.238;2024-03-29T06:04:22;96501.84;;;5.65;71.51
83635;BME280;73596;49.482;11.238;2024-03-29T06:06:54;96492.06;;;5.81;70.87
83635;BME280;73596;49.482;11.238;2024-03-29T06:09:19;96501.63;;;5.79;71.92
83635;BME280;73596;49.482;11.238;2024-03-29T06:11:44;96507.66;;;5.78;72.33
83635;BME280;73596;49.482;11.238;2024-03-29T06:14:10;96510.44;;;5.75;72.75
83635;BME280;73596;49.482;11.238;2024-03-29T06:16:35;96525.00;;;5.74;71.27
83635;BME280;73596;49.482;11.238;2024-03-29T06:19:19;96530.03;;;5.76;71.97
83635;BME280;73596;49.482;11.238;2024-03-29T06:21:44;96536.75;;;5.77;72.29
83635;BME280;73596;49.482;11.238;2024-03-29T06:24:10;96534.09;;;5.78;72.61
83635;BME280;73596;49.482;11.238;2024-03-29T06:26:40;96531.53;;;5.78;72.23
83635;BME280;73596;49.482;11.238;2024-03-29T06:29:06;96514.44;;;5.79;71.86
83635;BME280;73596;49.482;11.238;2024-03-29T06:31:31;96548.53;;;5.79;72.52
83635;BME280;73596;49.482;11.238;2024-03-29T06:33:59;96539.59;;;5.85;71.59
83635;BME280;73596;49.482;11.238;2024-03-29T06:36:24;96510.59;;;5.85;72.79
83635;BME280;73596;49.482;11.238;2024-03-29T06:38:50;96522.25;;;5.89;71.93
83635;BME280;73596;49.482;11.238;2024-03-29T06:41:15;96570.22;;;5.98;70.23
83635;BME280;73596;49.482;11.238;2024-03-29T06:43:42;96537.72;;;6.09;70.92
83635;BME280;73596;49.482;11.238;2024-03-29T06:46:09;96518.13;;;6.08;71.42
83635;BME280;73596;49.482;11.238;2024-03-29T06:48:35;96505.31;;;6.08;71.92
83635;BME280;73596;49.482;11.238;2024-03-29T06:51:00;96510.56;;;6.07;71.82
83635;BME280;73596;49.482;11.238;2024-03-29T06:53:25;96491.81;;;6.06;72.47
83635;BME280;73596;49.482;11.238;2024-03-29T06:55:51;96494.38;;;6.06;72.03
83635;BME280;73596;49.482;11.238;2024-03-29T06:58:16;96488.19;;;6.09;72.06
83635;BME280;73596;49.482;11.238;2024-03-29T07:00:43;96489.81;;;6.10;71.81
83635;BME280;73596;49.482;11.238;2024-03-29T07:03:08;96495.50;;;6.13;71.19
83635;BME280;73596;49.482;11.238;2024-03-29T07:05:33;96503.78;;;6.17;71.74
83635;BME280;73596;49.482;11.238;2024-03-29T07:07:59;96498.28;;;6.21;71.26
83635;BME280;73596;49.482;11.238;2024-03-29T07:10:25;96479.28;;;6.24;70.60
83635;BME280;73596;49.482;11.238;2024-03-29T07:12:51;96473.66;;;6.30;70.29
83635;BME280;73596;49.482;11.238;2024-03-29T07:15:16;96475.88;;;6.34;71.63
83635;BME280;73596;49.482;11.238;2024-03-29T07:17:41;96466.63;;;6.43;70.13
83635;BME280;73596;49.482;11.238;2024-03-29T07:20:08;96464.94;;;6.53;69.01
83635;BME280;73596;49.482;11.238;2024-03-29T07:22:34;96458.66;;;6.57;69.55
83635;BME280;73596;49.482;11.238;2024-03-29T07:24:59;96459.09;;;6.62;70.29
83635;BME280;73596;49.482;11.238;2024-03-29T07:27:24;96458.72;;;6.67;69.27
83635;BME280;73596;49.482;11.238;2024-03-29T07:29:50;96458.09;;;6.74;70.03
83635;BME280;73596;49.482;11.238;2024-03-29T07:32:15;96451.66;;;6.80;69.64
83635;BME280;73596;49.482;11.238;2024-03-29T07:34:41;96460.22;;;6.90;68.45
83635;BME280;73596;49.482;11.238;2024-03-29T07:37:06;96470.53;;;6.99;67.98
83635;BME280;73596;49.482;11.238;2024-03-29T07:39:31;96465.22;;;7.12;67.00
83635;BME280;73596;49.482;11.238;2024-03-29T07:41:56;96464.56;;;7.20;66.22
83635;BME280;73596;49.482;11.238;2024-03-29T07:44:22;96453.53;;;7.29;66.98
83635;BME280;73596;49.482;11.238;2024-03-29T07:46:47;96442.34;;;7.39;67.24
83635;BME280;73596;49.482;11.238;2024-03-29T07:49:14;96466.72;;;7.45;66.98
83635;BME280;73596;49.482;11.238;2024-03-29T07:51:39;96475.56;;;7.61;65.21
83635;BME280;73596;49.482;11.238;2024-03-29T07:54:04;96480.09;;;7.79;65.17
83635;BME280;73596;49.482;11.238;2024-03-29T07:56:30;96503.41;;;7.96;64.36
83635;BME280;73596;49.482;11.238;2024-03-29T07:58:55;96476.50;;;8.00;65.55
83635;BME280;73596;49.482;11.238;2024-03-29T08:01:21;96483.28;;;8.01;65.28
83635;BME280;73596;49.482;11.238;2024-03-29T08:03:47;96492.22;;;8.07;65.47
83635;BME280;73596;49.482;11.238;2024-03-29T08:06:14;96488.16;;;8.14;61.86
83635;BME280;73596;49.482;11.238;2024-03-29T08:08:43;96513.91;;;8.23;63.81
83635;BME280;73596;49.482;11.238;2024-03-29T08:11:08;96501.75;;;8.35;62.53
83635;BME280;73596;49.482;11.238;2024-03-29T08:13:35;96479.56;;;8.44;62.71
83635;BME280;73596;49.482;11.238;2024-03-29T08:16:00;96481.47;;;8.51;63.54
83635;BME280;73596;49.482;11.238;2024-03-29T08:18:27;96485.78;;;8.60;61.92
83635;BME280;73596;49.482;11.238;2024-03-29T08:20:53;96468.72;;;8.69;63.68
83635;BME280;73596;49.482;11.238;2024-03-29T08:23:22;96471.53;;;8.94;60.28
83635;BME280;73596;49.482;11.238;2024-03-29T08:25:48;96480.31;;;9.21;60.80
83635;BME280;73596;49.482;11.238;2024-03-29T08:28:14;96475.31;;;9.46;59.28
83635;BME280;73596;49.482;11.238;2024-03-29T08:30:39;96479.13;;;9.52;59.30
83635;BME280;73596;49.482;11.238;2024-03-29T08:33:04;96469.69;;;9.70;59.28
83635;BME280;73596;49.482;11.238;2024-03-29T08:35:31;96460.69;;;9.74;60.36
83635;BME280;73596;49.482;11.238;2024-03-29T08:37:56;96474.28;;;9.76;60.23
83635;BME280;73596;49.482;11.238;2024-03-29T08:40:22;96464.19;;;9.83;60.73
83635;BME280;73596;49.482;11.238;2024-03-29T08:42:47;96454.53;;;9.85;59.53
83635;BME280;73596;49.482;11.238;2024-03-29T08:45:13;96451.69;;;9.88;60.71
83635;BME280;73596;49.482;11.238;2024-03-29T08:47:38;96441.75;;;9.93;59.29
83635;BME280;73596;49.482;11.238;2024-03-29T08:50:04;96445.56;;;9.89;61.30
83635;BME280;73596;49.482;11.238;2024-03-29T08:52:30;96455.88;;;9.89;60.28
83635;BME280;73596;49.482;11.238;2024-03-29T08:54:55;96451.91;;;9.94;58.35
83635;BME280;73596;49.482;11.238;2024-03-29T08:57:20;96452.34;;;9.90;60.22
83635;BME280;73596;49.482;11.238;2024-03-29T08:59:45;96444.75;;;9.88;60.36
83635;BME280;73596;49.482;11.238;2024-03-29T09:02:11;96459.13;;;9.91;59.69
83635;BME280;73596;49.482;11.238;2024-03-29T09:04:36;96463.84;;;9.95;60.22
83635;BME280;73596;49.482;11.238;2024-03-29T09:07:02;96473.88;;;9.98;59.87
83635;BME280;73596;49.482;11.238;2024-03-29T09:09:28;96494.41;;;9.90;59.62
83635;BME280;73596;49.482;11.238;2024-03-29T09:11:54;96502.34;;;9.79;59.83
83635;BME280;73596;49.482;11.238;2024-03-29T09:14:20;96517.00;;;9.79;60.91
83635;BME280;73596;49.482;11.238;2024-03-29T09:16:45;96520.31;;;9.71;62.05
83635;BME280;73596;49.482;11.238;2024-03-29T09:19:12;96513.50;;;9.70;62.27
83635;BME280;73596;49.482;11.238;2024-03-29T09:21:37;96517.84;;;9.70;65.39
83635;BME280;73596;49.482;11.238;2024-03-29T09:24:03;96524.69;;;9.51;66.76
83635;BME280;73596;49.482;11.238;2024-03-29T09:26:28;96533.69;;;9.38;69.18
83635;BME280;73596;49.482;11.238;2024-03-29T09:28:53;96545.81;;;9.18;70.84
83635;BME280;73596;49.482;11.238;2024-03-29T09:31:18;96554.91;;;9.03;73.42
83635;BME280;73596;49.482;11.238;2024-03-29T09:33:44;96537.00;;;8.82;73.26
83635;BME280;73596;49.482;11.238;2024-03-29T09:36:12;96560.44;;;8.70;75.39
83635;BME280;73596;49.482;11.238;2024-03-29T09:38:37;96569.78;;;8.71;77.97
83635;BME280;73596;49.482;11.238;2024-03-29T09:41:10;96584.28;;;8.62;80.16
83635;BME280;73596;49.482;11.238;2024-03-29T09:43:37;96597.50;;;8.39;79.75
83635;BME280;73596;49.482;11.238;2024-03-29T09:46:04;96593.22;;;8.18;81.43
83635;BME280;73596;49.482;11.238;2024-03-29T09:48:30;96604.28;;;8.09;82.47
83635;BME280;73596;49.482;11.238;2024-03-29T09:51:05;96601.41;;;8.03;84.03
83635;BME280;73596;49.482;11.238;2024-03-29T09:53:33;96611.47;;;8.15;85.82
83635;BME280;73596;49.482;11.238;2024-03-29T09:56:00;96601.75;;;8.19;87.76
83635;BME280;73596;49.482;11.238;2024-03-29T09:58:25;96606.63;;;8.22;86.97
83635;BME280;73596;49.482;11.238;2024-03-29T10:00:50;96605.41;;;8.26;86.14
83635;BME280;73596;49.482;11.238;2024-03-29T10:03:16;96609.38;;;8.30;84.50
83635;BME280;73596;49.482;11.238;2024-03-29T10:05:45;96615.09;;;8.34;83.72
83635;BME280;73596;49.482;11.238;2024-03-29T10:08:11;96598.44;;;8.38;81.51
83635;BME280;73596;49.482;11.238;2024-03-29T10:10:37;96596.84;;;8.46;80.20
83635;BME280;73596;49.482;11.238;2024-03-29T10:13:02;96582.63;;;8.52;81.35
83635;BME280;73596;49.482;11.238;2024-03-29T10:15:29;96589.00;;;8.57;81.87
83635;BME280;73596;49.482;11.238;2024-03-29T10:17:56;96578.06;;;8.65;82.59
83635;BME280;73596;49.482;11.238;2024-03-29T10:20:21;96599.72;;;8.72;84.06
83635;BME280;73596;49.482;11.238;2024-03-29T10:22:48;96583.88;;;8.76;82.81
83635;BME280;73596;49.482;11.238;2024-03-29T10:25:14;96566.41;;;8.80;83.70
83635;BME280;73596;49.482;11.238;2024-03-29T10:27:40;96562.47;;;8.85;83.47
83635;BME280;73596;49.482;11.238;2024-03-29T10:30:07;96535.09;;;8.84;82.19
83635;BME280;73596;49.482;11.238;2024-03-29T10:32:34;96518.97;;;8.92;82.58
83635;BME280;73596;49.482;11.238;2024-03-29T10:34:59;96528.59;;;9.00;85.18
83635;BME280;73596;49.482;11.238;2024-03-29T10:37:28;96542.03;;;9.03;84.22
83635;BME280;73596;49.482;11.238;2024-03-29T10:39:55;96533.88;;;9.08;82.30
83635;BME280;73596;49.482;11.238;2024-03-29T10:42:24;96556.66;;;9.12;80.02
83635;BME280;73596;49.482;11.238;2024-03-29T10:44:51;96569.25;;;9.25;85.44
83635;BME280;73596;49.482;11.238;2024-03-29T10:47:18;96570.47;;;9.30;83.88
83635;BME280;73596;49.482;11.238;2024-03-29T10:49:47;96570.72;;;9.37;82.65
83635;BME280;73596;49.482;11.238;2024-03-29T10:52:14;96577.34;;;9.39;83.14
83635;BME280;73596;49.482;11.238;2024-03-29T10:54:44;96580.06;;;9.47;82.49
83635;BME280;73596;49.482;11.238;2024-03-29T10:57:16;96572.72;;;9.52;82.95
83635;BME280;73596;49.482;11.238;2024-03-29T11:02:29;96567.13;;;9.57;80.40
83635;BME280;73596;49.482;11.238;2024-03-29T11:04:58;96561.56;;;9.62;82.52
83635;BME280;73596;49.482;11.238;2024-03-29T11:07:25;96569.03;;;9.55;84.24
83635;BME280;73596;49.482;11.238;2024-03-29T11:09:56;96564.72;;;9.55;85.47
83635;BME280;73596;49.482;11.238;2024-03-29T11:12:25;96557.13;;;9.44;85.60
83635;BME280;73596;49.482;11.238;2024-03-29T11:15:00;96538.44;;;9.33;85.12
83635;BME280;73596;49.482;11.238;2024-03-29T11:17:29;96534.50;;;9.29;86.63
83635;BME280;73596;49.482;11.238;2024-03-29T11:19:56;96537.78;;;9.21;85.50
83635;BME280;73596;49.482;11.238;2024-03-29T11:22:21;96531.81;;;9.30;88.90
83635;BME280;73596;49.482;11.238;2024-03-29T11:24:50;96534.38;;;9.30;86.21
83635;BME280;73596;49.482;11.238;2024-03-29T11:27:15;96519.75;;;9.31;83.94
83635;BME280;73596;49.482;11.238;2024-03-29T11:29:41;96511.72;;;9.34;83.12
83635;BME280;73596;49.482;11.238;2024-03-29T11:32:08;96504.69;;;9.36;82.96
83635;BME280;73596;49.482;11.238;2024-03-29T11:34:33;96503.28;;;9.41;82.42
83635;BME280;73596;49.482;11.238;2024-03-29T11:37:12;96489.47;;;9.42;81.74
83635;BME280;73596;49.482;11.238;2024-03-29T11:39:38;96493.09;;;9.49;81.55
83635;BME280;73596;49.482;11.238;2024-03-29T11:42:03;96482.66;;;9.51;80.14
83635;BME280;73596;49.482;11.238;2024-03-29T11:44:29;96469.47;;;9.54;80.86
83635;BME280;73596;49.482;11.238;2024-03-29T11:46:58;96471.50;;;9.60;80.15
83635;BME280;73596;49.482;11.238;2024-03-29T11:49:24;96459.22;;;9.72;80.09
83635;BME280;73596;49.482;11.238;2024-03-29T11:51:49;96458.09;;;9.84;80.16
83635;BME280;73596;49.482;11.238;2024-03-29T11:54:14;96470.78;;;9.95;79.52
83635;BME280;73596;49.482;11.238;2024-03-29T11:56:42;96511.19;;;10.04;80.21
83635;BME280;73596;49.482;11.238;2024-03-29T11:59:07;96527.47;;;10.14;78.93
83635;BME280;73596;49.482;11.238;2024-03-29T12:01:33;96521.16;;;10.26;79.35
83635;BME280;73596;49.482;11.238;2024-03-29T12:03:58;96497.63;;;10.29;78.28
83635;BME280;73596;49.482;11.238;2024-03-29T12:06:24;96502.56;;;10.40;77.72
83635;BME280;73596;49.482;11.238;2024-03-29T12:08:50;96501.47;;;10.43;77.19
83635;BME280;73596;49.482;11.238;2024-03-29T12:11:18;96499.56;;;10.45;77.13
83635;BME280;73596;49.482;11.238;2024-03-29T12:13:44;96491.38;;;10.49;77.49
83635;BME280;73596;49.482;11.238;2024-03-29T12:16:09;96484.13;;;10.53;77.13
83635;BME280;73596;49.482;11.238;2024-03-29T12:18:35;96460.31;;;10.59;76.92
83635;BME280;73596;49.482;11.238;2024-03-29T12:21:01;96456.47;;;10.63;76.53
83635;BME280;73596;49.482;11.238;2024-03-29T12:23:27;96454.72;;;10.63;75.87
83635;BME280;73596;49.482;11.238;2024-03-29T12:25:57;96449.91;;;10.68;76.15
83635;BME280;73596;49.482;11.238;2024-03-29T12:28:24;96464.81;;;10.74;75.61
83635;BME280;73596;49.482;11.238;2024-03-29T12:30:50;96459.56;;;10.84;74.30
83635;BME280;73596;49.482;11.238;2024-03-29T12:33:18;96464.03;;;11.00;73.74
83635;BME280;73596;49.482;11.238;2024-03-29T12:35:47;96460.91;;;11.14;74.83
83635;BME280;73596;49.482;11.238;2024-03-29T12:38:18;96451.22;;;11.16;73.12
83635;BME280;73596;49.482;11.238;2024-03-29T12:40:45;96428.78;;;11.16;72.33
83635;BME280;73596;49.482;11.238;2024-03-29T12:43:14;96424.19;;;11.36;73.21
83635;BME280;73596;49.482;11.238;2024-03-29T12:45:40;96419.09;;;11.52;73.81
83635;BME280;73596;49.482;11.238;2024-03-29T12:48:16;96416.81;;;11.75;70.02
83635;BME280;73596;49.482;11.238;2024-03-29T12:50:44;96419.13;;;12.02;70.65
83635;BME280;73596;49.482;11.238;2024-03-29T12:53:11;96415.63;;;12.19;69.88
83635;BME280;73596;49.482;11.238;2024-03-29T12:55:40;96413.53;;;12.31;70.33
83635;BME280;73596;49.482;11.238;2024-03-29T12:58:07;96399.63;;;12.48;69.36